Flight Track Log - Related Links

Times and Time Zones

All times are in EDT time to prevent confusion due to time zone crossing. See the PDT4147 flight status page for this flight to view local times or setup timezone preferences in your user account.

Time Position Orientation Groundspeed Altitude Reporting Facility
EDT Latitude Longitude Course Direction KTS MPH feet Rate Location/Type
Fri 04:32:00 PM 36.9741 -80.0333 180° South  Level FlightAware Approximate
Fri 04:33:00 PM 36.9040 -80.0285 176° South  Level FlightAware Approximate
Fri 04:34:00 PM 36.8339 -80.0231 176° South  Level FlightAware Approximate
Fri 04:35:00 PM 36.7638 -80.0177 176° South  Level FlightAware Approximate
Fri 04:36:00 PM 36.6937 -80.0152 177° South  Level FlightAware Approximate
Fri 04:37:00 PM 36.6235 -80.0108 177° South  Level FlightAware Approximate
Fri 04:38:00 PM 36.5534 -80.0064 177° South  Level FlightAware Approximate
Fri 04:39:00 PM 36.4833 -80.0021 177° South  Level FlightAware Approximate
Fri 04:40:00 PM 36.4133 -79.9954 174° South  Level FlightAware Approximate
Fri 04:41:00 PM 36.3434 -79.9867 174° South  Level FlightAware Approximate
Fri 04:42:00 PM 36.2734 -79.9808 177° South  Level FlightAware Approximate
Fri 04:43:00 PM 36.2032 -79.9766 177° South  Level FlightAware Approximate
Fri 04:44:00 PM 36.1331 -79.9725 177° South  Level FlightAware Approximate
Fri 04:45:00 PM 36.0629 -79.9684 177° South  Level FlightAware Approximate
Fri 04:46:00 PM 36.0071 -80.0050 230° Southwest  Level FlightAware Approximate
Fri 04:47:00 PM 35.9617 -80.0712 230° Southwest  Level FlightAware Approximate
Fri 04:48:00 PM 35.9162 -80.1373 230° Southwest  Level FlightAware Approximate
Fri 04:49:00 PM 35.8707 -80.2033 230° Southwest  Level FlightAware Approximate
Fri 04:50:00 PM 35.8232 -80.2669 225° Southwest  Level FlightAware Approximate
Fri 04:51:00 PM 35.7742 -80.3289 227° Southwest  Level FlightAware Approximate
Fri 04:52:00 PM 35.7265 -80.3925 227° Southwest  Level FlightAware Approximate
Fri 04:52:17 PM 35.9589 -80.4192 214° Southwest 235 270 7,000  Level Atlanta Center
Fri 04:53:00 PM 35.6782 -80.4551 219° Southwest  Level FlightAware Approximate
Fri 04:53:18 PM 35.8975 -80.4578 207° Southwest 236 272 6,400  Level Atlanta Center
Fri 04:54:00 PM 35.6298 -80.5175 228° Southwest  Level FlightAware Approximate
Fri 04:54:13 PM 35.8442 -80.4883 205° Southwest 237 273 6,000  Level Atlanta Center
Fri 04:55:00 PM 35.5830 -80.5819 228° Southwest  Level FlightAware Approximate
Fri 04:55:14 PM 35.7867 -80.5214 205° Southwest 231 266 6,000  Level Atlanta Center
Fri 04:56:00 PM 35.5361 -80.6462 228° Southwest  Level FlightAware Approximate
Fri 04:56:22 PM 35.7319 -80.5775 220° Southwest 230 265 6,000  Level Atlanta Center
Fri 04:57:00 PM 35.4798 -80.6974 214° Southwest  Level FlightAware Approximate
Fri 04:57:23 PM 35.6964 -80.6431 236° Southwest 228 262 6,000  Level Atlanta Center
Fri 04:58:24 PM 35.6647 -80.7081 239° Southwest 227 261 6,000  Level Atlanta Center
Fri 04:59:25 PM 35.6333 -80.7811 242° Southwest 228 262 6,000  Level Atlanta Center
Fri 05:00:32 PM 35.6061 -80.8561 246° West 229 264 6,000  Level Atlanta Center
Fri 05:01:27 PM 35.5847 -80.9208 248° West 224 258 6,000  Level Atlanta Center
Fri 05:02:28 PM 35.5547 -80.9678 232° Southwest 168 193 6,000  Level Atlanta Center
Fri 05:03:24 PM 35.5133 -80.9822 196° South 164 189 6,000 -414 Level Atlanta Center
Fri 05:04:24 PM 35.4631 -80.9764 175° South 176 203 5,200 -942 Descending Atlanta Center
Fri 05:05:25 PM 35.4108 -80.9706 175° South 178 205 4,100 -885 Descending Atlanta Center
Fri 05:06:26 PM 35.3628 -80.9675 177° South 173 199 3,400 -837 Descending Atlanta Center
Fri 05:07:34 PM 35.3064 -80.9644 177° South 191 220 2,300 -971 Descending Atlanta Center

Login

Don't have an account? Register now (free) for customized features, flight alerts, and more!